Time;durP1;ratioP1;P1;durP2;ratioP2;P2;SDS_P1;SDS_P2;PMS_P1;PMS_P2;Temp;Humidity;BMP_temperature;BMP_pressure;BME280_temperature;BME280_humidity;BME280_pressure;Samples;Min_cycle;Max_cycle;Signal;HPM_P1;HPM_P2
2021/12/09 00:01:16;;;;;;;7.60;5.20;;;22.30;32.00;;;;;;5098562;27;20047;-60
2021/12/09 00:03:43;;;;;;;7.35;5.28;;;22.30;32.00;;;;;;5076767;28;20579;-60
2021/12/09 00:06:12;;;;;;;7.85;5.40;;;22.30;32.00;;;;;;5102483;28;20138;-59
2021/12/09 00:08:41;;;;;;;7.05;4.95;;;22.30;31.90;;;;;;5103060;28;20515;-59
2021/12/09 00:11:08;;;;;;;5.25;4.45;;;22.30;31.90;;;;;;5096284;27;20108;-60
2021/12/09 00:13:36;;;;;;;7.20;5.32;;;22.30;32.00;;;;;;5095346;28;20569;-59
2021/12/09 00:16:04;;;;;;;6.72;5.18;;;22.30;31.90;;;;;;5084335;28;20716;-60
2021/12/09 00:18:31;;;;;;;7.38;5.43;;;22.30;31.90;;;;;;5103079;28;20146;-60
2021/12/09 00:20:58;;;;;;;6.75;4.88;;;22.30;31.90;;;;;;5101746;27;20099;-60
2021/12/09 00:23:26;;;;;;;5.85;4.43;;;22.30;31.90;;;;;;5079794;27;20108;-59
2021/12/09 00:25:53;;;;;;;6.72;4.75;;;22.30;31.90;;;;;;5106491;27;20051;-59
2021/12/09 00:28:20;;;;;;;7.50;5.10;;;22.30;31.90;;;;;;5106878;27;20055;-60
2021/12/09 00:30:47;;;;;;;6.82;4.68;;;22.30;31.90;;;;;;5106414;27;20058;-59
2021/12/09 00:33:16;;;;;;;6.05;4.43;;;22.30;31.90;;;;;;5090709;27;20124;-59
2021/12/09 00:35:48;;;;;;;5.32;4.45;;;22.30;31.90;;;;;;5107101;27;20461;-59
2021/12/09 00:38:22;;;;;;;5.88;4.40;;;22.30;31.90;;;;;;5106920;27;20078;-59
2021/12/09 00:40:50;;;;;;;5.82;4.97;;;22.20;32.50;;;;;;5107446;27;20055;-60
2021/12/09 00:43:20;;;;;;;5.85;5.03;;;22.20;31.80;;;;;;5096719;27;20050;-60
2021/12/09 00:45:47;;;;;;;8.52;5.50;;;22.20;31.80;;;;;;5091319;27;20073;-60
2021/12/09 00:48:14;;;;;;;5.68;4.45;;;22.20;31.80;;;;;;5137566;27;20118;-60
2021/12/09 00:50:42;;;;;;;5.45;4.30;;;22.20;31.90;;;;;;5128605;27;20135;-60
2021/12/09 00:53:10;;;;;;;7.93;5.88;;;22.20;31.90;;;;;;5119183;27;20460;-60
2021/12/09 00:55:37;;;;;;;5.30;4.57;;;22.20;31.90;;;;;;5113955;27;20515;-59
2021/12/09 00:58:05;;;;;;;6.18;4.45;;;22.20;31.90;;;;;;5106207;27;20138;-60
2021/12/09 01:00:33;;;;;;;5.35;4.18;;;22.20;31.90;;;;;;5105606;27;20078;-60
2021/12/09 01:03:01;;;;;;;7.03;5.22;;;22.20;31.90;;;;;;5080266;27;20076;-59
2021/12/09 01:05:29;;;;;;;6.30;4.90;;;22.20;31.90;;;;;;5101012;27;20086;-59
2021/12/09 01:07:56;;;;;;;5.50;4.18;;;22.20;31.90;;;;;;5085177;28;20493;-59
2021/12/09 01:10:24;;;;;;;7.28;5.32;;;22.20;31.90;;;;;;5084891;28;20075;-60
2021/12/09 01:12:52;;;;;;;6.07;4.40;;;22.20;31.90;;;;;;5084523;27;20130;-60
2021/12/09 01:15:19;;;;;;;6.50;4.82;;;22.20;31.90;;;;;;5106384;27;20051;-59
2021/12/09 01:17:48;;;;;;;6.88;4.60;;;22.20;31.90;;;;;;5105970;27;20054;-59
2021/12/09 01:20:18;;;;;;;7.22;4.75;;;22.20;31.90;;;;;;5106166;27;20186;-59
2021/12/09 01:26:51;;;;;;;6.57;4.72;;;22.10;31.90;;;;;;5116441;28;20046;-60
2021/12/09 01:29:28;;;;;;;5.53;4.35;;;22.20;31.90;;;;;;5085618;28;20052;-59
2021/12/09 01:32:00;;;;;;;5.32;4.00;;;22.20;32.00;;;;;;5084471;27;20583;-60
2021/12/09 01:34:28;;;;;;;5.93;4.45;;;22.10;31.90;;;;;;5098582;27;20559;-60
2021/12/09 01:36:55;;;;;;;5.75;4.65;;;22.10;31.90;;;;;;5104970;27;20217;-60
2021/12/09 01:39:22;;;;;;;5.03;4.22;;;22.10;31.90;;;;;;5099281;27;20052;-60
2021/12/09 01:41:50;;;;;;;6.18;4.55;;;22.10;31.90;;;;;;5077894;27;20124;-60
2021/12/09 01:44:17;;;;;;;5.57;4.70;;;22.10;31.90;;;;;;5084069;27;20134;-60
2021/12/09 01:46:44;;;;;;;5.45;4.28;;;22.10;31.90;;;;;;5104538;27;20135;-59
2021/12/09 01:49:11;;;;;;;5.50;4.20;;;22.10;32.00;;;;;;5104384;27;20499;-59
2021/12/09 01:51:41;;;;;;;5.82;4.20;;;22.10;32.00;;;;;;5099616;27;20485;-60
2021/12/09 01:54:08;;;;;;;5.78;4.25;;;22.10;31.90;;;;;;5077459;27;20118;-60
2021/12/09 01:56:35;;;;;;;6.07;4.57;;;22.10;31.90;;;;;;5104886;27;20082;-59
2021/12/09 01:59:05;;;;;;;6.25;4.47;;;22.10;31.90;;;;;;5104745;27;20093;-59
2021/12/09 02:01:34;;;;;;;5.82;4.18;;;22.10;31.90;;;;;;5098557;27;20064;-60
2021/12/09 02:04:05;;;;;;;5.40;4.15;;;22.10;31.90;;;;;;5097434;27;20055;-59
2021/12/09 02:06:33;;;;;;;6.32;4.93;;;22.10;31.90;;;;;;5086269;27;20047;-62
2021/12/09 02:09:02;;;;;;;6.13;4.47;;;22.10;31.90;;;;;;5104980;27;20143;-59
2021/12/09 02:11:30;;;;;;;6.10;4.50;;;22.20;31.90;;;;;;5093351;27;20094;-60
2021/12/09 02:13:57;;;;;;;5.55;4.22;;;22.10;31.90;;;;;;5083887;27;20079;-59
2021/12/09 02:16:25;;;;;;;5.35;4.40;;;22.10;31.90;;;;;;5065708;28;20109;-60
2021/12/09 02:18:53;;;;;;;4.28;3.80;;;22.10;31.90;;;;;;5065145;28;20062;-60
2021/12/09 02:21:24;;;;;;;5.45;4.25;;;22.10;31.90;;;;;;5082084;27;20672;-60
2021/12/09 02:23:55;;;;;;;7.05;4.78;;;22.20;31.90;;;;;;5079270;27;20151;-60
2021/12/09 02:26:26;;;;;;;6.20;4.50;;;22.10;31.90;;;;;;5052276;28;20505;-60
2021/12/09 02:28:55;;;;;;;6.07;4.60;;;22.10;31.90;;;;;;5071866;28;20131;-60
2021/12/09 02:31:23;;;;;;;3.97;3.58;;;22.10;31.90;;;;;;5062544;27;20097;-60
2021/12/09 02:33:50;;;;;;;5.28;4.72;;;22.10;31.90;;;;;;5075942;28;20047;-61
2021/12/09 02:36:18;;;;;;;4.50;4.00;;;22.10;31.90;;;;;;5103706;27;20098;-60
2021/12/09 02:38:47;;;;;;;5.25;4.10;;;22.10;31.90;;;;;;5089826;27;20048;-60
2021/12/09 02:41:18;;;;;;;5.10;4.22;;;22.10;31.90;;;;;;5062685;27;20047;-60
2021/12/09 02:43:50;;;;;;;6.47;4.30;;;22.10;31.90;;;;;;5076213;27;20054;-59
2021/12/09 02:46:18;;;;;;;5.80;4.18;;;22.10;32.00;;;;;;5103763;27;20115;-60
2021/12/09 02:48:46;;;;;;;6.13;4.25;;;22.10;31.90;;;;;;5096881;27;20484;-59
2021/12/09 02:51:14;;;;;;;5.72;4.32;;;22.10;31.90;;;;;;5099752;27;20120;-60
2021/12/09 02:53:41;;;;;;;5.35;4.00;;;22.10;31.90;;;;;;5087163;27;20484;-60
2021/12/09 02:56:09;;;;;;;4.90;3.97;;;22.10;32.00;;;;;;5083131;28;20564;-60
2021/12/09 02:58:37;;;;;;;6.30;4.70;;;22.10;32.00;;;;;;5083179;28;20086;-59
2021/12/09 03:01:15;;;;;;;5.22;4.18;;;22.10;32.00;;;;;;5082348;27;20690;-60
2021/12/09 03:03:50;;;;;;;6.18;4.75;;;22.10;32.00;;;;;;5079467;27;20563;-60
2021/12/09 03:06:21;;;;;;;5.50;4.32;;;22.00;31.90;;;;;;5104344;27;20518;-60
2021/12/09 03:08:49;;;;;;;4.72;4.07;;;22.10;31.90;;;;;;5067254;28;20043;-60
2021/12/09 03:11:20;;;;;;;4.25;3.80;;;22.10;31.90;;;;;;5080681;27;20394;-60
2021/12/09 03:13:50;;;;;;;5.40;4.30;;;22.10;31.90;;;;;;5097006;27;20546;-60
2021/12/09 03:16:22;;;;;;;4.82;4.30;;;22.00;31.90;;;;;;5064949;28;20109;-60
2021/12/09 03:18:58;;;;;;;5.07;3.95;;;22.00;31.90;;;;;;5082616;28;20048;-60
2021/12/09 03:21:30;;;;;;;5.70;4.40;;;22.00;31.90;;;;;;5061525;27;20059;-60
2021/12/09 03:23:59;;;;;;;5.18;4.20;;;22.00;31.90;;;;;;5079233;27;20075;-60
2021/12/09 03:26:35;;;;;;;4.97;4.00;;;22.00;31.90;;;;;;5082710;28;20133;-60
2021/12/09 03:29:06;;;;;;;5.65;4.43;;;22.00;31.90;;;;;;5082239;28;20108;-61
2021/12/09 03:31:36;;;;;;;5.43;4.13;;;22.00;31.90;;;;;;5063658;28;20456;-59
2021/12/09 03:34:04;;;;;;;5.22;3.80;;;22.00;31.90;;;;;;5094407;27;20058;-59
2021/12/09 03:36:32;;;;;;;5.32;4.15;;;22.00;31.90;;;;;;5103366;28;20278;-59
2021/12/09 03:39:04;;;;;;;5.22;4.03;;;22.00;31.90;;;;;;5102604;28;20083;-59
2021/12/09 03:41:31;;;;;;;4.68;3.75;;;22.00;31.90;;;;;;5095657;27;20055;-60
2021/12/09 03:43:58;;;;;;;4.60;3.60;;;22.00;31.90;;;;;;5096232;28;20679;-60
2021/12/09 03:46:25;;;;;;;6.65;4.53;;;22.00;31.90;;;;;;5084929;28;20075;-60
2021/12/09 03:48:53;;;;;;;5.22;4.13;;;22.00;31.90;;;;;;5099582;28;20054;-60
2021/12/09 03:51:20;;;;;;;6.63;4.40;;;22.00;32.00;;;;;;5080840;28;20145;-59
2021/12/09 03:53:47;;;;;;;4.78;3.90;;;22.00;32.00;;;;;;5090226;28;20051;-59
2021/12/09 03:56:14;;;;;;;4.78;4.15;;;22.00;32.00;;;;;;5102555;28;20919;-59
2021/12/09 03:58:42;;;;;;;5.35;4.03;;;22.00;32.00;;;;;;5105495;27;20078;-59
2021/12/09 04:01:09;;;;;;;5.00;3.92;;;22.00;31.90;;;;;;5101293;27;20117;-60
2021/12/09 04:03:36;;;;;;;4.40;3.80;;;22.00;31.90;;;;;;5080818;27;20514;-60
2021/12/09 04:06:04;;;;;;;4.80;3.90;;;22.00;31.90;;;;;;5106366;27;20054;-59
2021/12/09 04:08:31;;;;;;;5.47;3.70;;;22.00;31.90;;;;;;5106574;27;20523;-60
2021/12/09 04:10:58;;;;;;;5.78;4.50;;;22.00;31.90;;;;;;5105290;27;20082;-60
2021/12/09 04:13:28;;;;;;;5.70;4.20;;;22.00;31.90;;;;;;5059109;28;20581;-60
2021/12/09 04:15:55;;;;;;;4.00;3.60;;;22.00;31.90;;;;;;5086030;28;20048;-60
2021/12/09 04:18:23;;;;;;;4.80;4.07;;;22.00;31.90;;;;;;5086448;28;20062;-60
2021/12/09 04:20:50;;;;;;;5.18;4.15;;;22.00;31.90;;;;;;5086115;28;20820;-60
2021/12/09 04:23:17;;;;;;;5.13;3.95;;;22.00;31.90;;;;;;5092177;27;20112;-60
2021/12/09 04:25:44;;;;;;;5.03;4.05;;;22.00;31.90;;;;;;5106777;27;20047;-60
2021/12/09 04:28:11;;;;;;;5.47;4.38;;;22.00;31.90;;;;;;5106955;27;20162;-60
2021/12/09 04:30:40;;;;;;;4.88;4.35;;;22.00;31.90;;;;;;5088520;27;20047;-60
2021/12/09 04:33:08;;;;;;;4.53;3.80;;;22.00;31.90;;;;;;5095992;27;20074;-60
2021/12/09 04:35:36;;;;;;;4.40;3.53;;;22.00;31.90;;;;;;5085732;27;20435;-60
2021/12/09 04:38:03;;;;;;;6.18;4.45;;;22.00;31.90;;;;;;5086160;28;20488;-60
2021/12/09 04:40:30;;;;;;;4.25;3.75;;;22.00;31.90;;;;;;5084945;28;20412;-60
2021/12/09 04:43:00;;;;;;;5.82;4.03;;;22.00;32.00;;;;;;5058243;27;20140;-62
2021/12/09 04:45:30;;;;;;;5.47;3.40;;;21.90;32.00;;;;;;5077867;27;20051;-60
2021/12/09 04:47:57;;;;;;;5.60;4.35;;;22.00;31.90;;;;;;5068325;28;20048;-60
2021/12/09 04:50:25;;;;;;;4.53;3.95;;;21.90;31.90;;;;;;5093486;27;20147;-60
2021/12/09 04:52:53;;;;;;;4.20;3.50;;;21.90;31.90;;;;;;5075911;27;20108;-59
2021/12/09 04:55:20;;;;;;;4.63;4.07;;;21.90;31.90;;;;;;5079866;28;20052;-59
2021/12/09 04:57:47;;;;;;;5.03;4.00;;;21.90;32.00;;;;;;5072445;28;20059;-59
2021/12/09 05:00:18;;;;;;;5.00;4.10;;;21.90;32.00;;;;;;5066805;28;20047;-60
2021/12/09 05:03:02;;;;;;;4.25;3.85;;;21.90;32.00;;;;;;5069002;27;20055;-60
2021/12/09 05:05:35;;;;;;;4.10;3.53;;;21.90;32.00;;;;;;5084647;28;20500;-60
2021/12/09 05:08:05;;;;;;;4.93;4.10;;;21.90;32.00;;;;;;5079528;28;20500;-61
2021/12/09 05:10:37;;;;;;;;;;;21.90;32.00;;;;;;5082201;28;20130;-60
2021/12/09 05:13:05;;;;;;;4.38;3.20;;;21.90;32.00;;;;;;5072061;27;19923;-61
2021/12/09 05:15:32;;;;;;;4.68;4.07;;;21.90;32.00;;;;;;5077460;27;20047;-60
2021/12/09 05:17:59;;;;;;;4.85;3.67;;;21.90;32.00;;;;;;5080694;27;20082;-60
2021/12/09 05:20:27;;;;;;;4.32;3.72;;;21.90;32.00;;;;;;5065799;28;20134;-60
2021/12/09 05:22:54;;;;;;;4.35;3.92;;;21.90;32.00;;;;;;5081889;27;20078;-60
2021/12/09 05:25:22;;;;;;;5.03;3.67;;;21.90;32.00;;;;;;5105018;27;20065;-60
2021/12/09 05:27:49;;;;;;;3.78;3.38;;;21.90;32.00;;;;;;5080012;27;20071;-60
2021/12/09 05:30:23;;;;;;;4.60;3.78;;;21.90;32.00;;;;;;5081495;28;20083;-61
2021/12/09 05:32:51;;;;;;;6.68;3.83;;;21.90;32.00;;;;;;5087574;27;20598;-60
2021/12/09 05:35:19;;;;;;;4.20;3.78;;;21.90;32.00;;;;;;5082205;28;20105;-60
2021/12/09 05:37:49;;;;;;;7.43;5.05;;;21.90;32.10;;;;;;5077857;28;20481;-60
2021/12/09 05:40:16;;;;;;;4.32;3.58;;;21.90;32.00;;;;;;5084185;28;20044;-60
2021/12/09 05:42:43;;;;;;;5.85;3.70;;;21.90;32.00;;;;;;5073311;27;20101;-60
2021/12/09 05:45:10;;;;;;;4.68;3.45;;;21.90;32.00;;;;;;5062553;28;20048;-61
2021/12/09 05:47:38;;;;;;;4.22;3.58;;;21.90;32.00;;;;;;5084249;28;20086;-60
2021/12/09 05:50:07;;;;;;;5.70;3.78;;;21.90;32.00;;;;;;5080445;27;20052;-60
2021/12/09 05:52:35;;;;;;;5.22;3.80;;;21.90;32.00;;;;;;5063656;27;20107;-60
2021/12/09 05:55:02;;;;;;;4.50;3.83;;;21.90;32.00;;;;;;5055607;28;20176;-60
2021/12/09 05:57:29;;;;;;;4.88;3.80;;;21.90;32.00;;;;;;5078582;27;20048;-61
2021/12/09 05:59:56;;;;;;;4.80;3.28;;;21.90;32.00;;;;;;5084756;27;20051;-60
2021/12/09 06:02:24;;;;;;;3.97;3.58;;;21.90;32.00;;;;;;5061141;27;20051;-61
2021/12/09 06:04:52;;;;;;;5.50;3.88;;;21.90;32.00;;;;;;5077672;28;20117;-60
2021/12/09 06:07:20;;;;;;;5.72;4.25;;;21.90;31.90;;;;;;5075504;28;20044;-61
2021/12/09 06:09:47;;;;;;;4.22;3.83;;;21.90;31.70;;;;;;5081065;28;20500;-60
2021/12/09 06:12:14;;;;;;;3.70;3.40;;;21.90;31.70;;;;;;5056494;28;20526;-61
2021/12/09 06:14:41;;;;;;;5.95;4.05;;;21.90;31.90;;;;;;5065918;28;20052;-60
2021/12/09 06:17:09;;;;;;;6.68;4.55;;;21.80;31.80;;;;;;5076909;28;20126;-60
2021/12/09 06:19:36;;;;;;;4.75;4.25;;;21.80;31.80;;;;;;5076850;27;20052;-60
2021/12/09 06:22:03;;;;;;;5.15;4.43;;;21.80;31.80;;;;;;5066394;27;20659;-63
2021/12/09 06:24:31;;;;;;;6.97;4.47;;;21.80;31.70;;;;;;5052045;27;20537;-61
2021/12/09 06:26:59;;;;;;;5.72;4.72;;;21.80;32.30;;;;;;5082434;27;20093;-60
2021/12/09 06:29:26;;;;;;;5.78;4.50;;;21.80;31.60;;;;;;5072625;27;20048;-60
2021/12/09 06:31:54;;;;;;;5.80;4.30;;;21.90;31.60;;;;;;5068417;27;20055;-60
2021/12/09 06:34:21;;;;;;;5.97;4.55;;;21.90;31.50;;;;;;5068237;27;20497;-60
2021/12/09 06:36:48;;;;;;;6.53;4.68;;;22.00;32.20;;;;;;5072125;27;20055;-61
2021/12/09 06:39:17;;;;;;;5.68;4.63;;;22.00;32.40;;;;;;5071018;28;20131;-62
2021/12/09 06:41:45;;;;;;;4.53;4.05;;;22.10;32.50;;;;;;5050169;28;20079;-63
2021/12/09 06:44:12;;;;;;;5.30;4.43;;;22.10;32.00;;;;;;5069605;27;20075;-61
2021/12/09 06:46:39;;;;;;;5.25;4.32;;;22.20;31.80;;;;;;5067717;27;20146;-60
2021/12/09 06:49:06;;;;;;;9.25;4.22;;;22.30;31.80;;;;;;5070064;27;20512;-61
2021/12/09 06:51:37;;;;;;;7.22;4.55;;;22.30;31.70;;;;;;5064703;27;20222;-61
2021/12/09 06:54:07;;;;;;;6.20;4.40;;;22.30;31.50;;;;;;5061920;27;20075;-61
2021/12/09 06:56:35;;;;;;;5.53;4.30;;;22.40;31.40;;;;;;5073103;27;20063;-61
2021/12/09 06:59:03;;;;;;;5.13;4.18;;;22.40;31.20;;;;;;5075332;27;20047;-61
2021/12/09 07:01:37;;;;;;;6.07;4.65;;;22.50;31.10;;;;;;5062763;27;20092;-62
2021/12/09 07:04:08;;;;;;;6.25;4.68;;;22.60;31.10;;;;;;5063188;28;20047;-62
2021/12/09 07:06:36;;;;;;;8.13;4.38;;;22.60;31.00;;;;;;5052581;28;20416;-62
2021/12/09 07:09:04;;;;;;;5.72;4.65;;;22.70;31.00;;;;;;5071272;27;20074;-62
2021/12/09 07:11:39;;;;;;;8.43;4.65;;;22.70;30.90;;;;;;5065680;27;20039;-61
2021/12/09 07:14:08;;;;;;;5.97;4.95;;;22.70;30.90;;;;;;5059792;28;20075;-61
2021/12/09 07:16:35;;;;;;;5.60;4.60;;;22.80;31.20;;;;;;5070304;28;20088;-61
2021/12/09 07:19:02;;;;;;;7.10;4.35;;;22.90;31.40;;;;;;5073288;27;20051;-61
2021/12/09 07:21:29;;;;;;;7.60;5.57;;;22.90;31.50;;;;;;5063308;28;20116;-62
2021/12/09 07:23:57;;;;;;;6.40;5.28;;;23.00;31.60;;;;;;5047401;28;20071;-61
2021/12/09 07:26:24;;;;;;;8.20;5.60;;;23.00;31.60;;;;;;5068870;28;20143;-64
2021/12/09 07:28:51;;;;;;;6.82;4.72;;;23.10;31.80;;;;;;5051348;28;20131;-61
2021/12/09 07:31:19;;;;;;;6.63;4.30;;;23.20;31.60;;;;;;5069950;28;20048;-61
2021/12/09 07:33:46;;;;;;;6.82;5.15;;;23.20;31.50;;;;;;5042315;28;20044;-61
2021/12/09 07:36:13;;;;;;;6.25;4.63;;;23.30;31.40;;;;;;5056658;28;20056;-61
2021/12/09 07:38:41;;;;;;;5.65;4.85;;;23.30;31.40;;;;;;5068530;28;20158;-61
2021/12/09 07:41:09;;;;;;;5.55;4.70;;;23.40;31.30;;;;;;5064812;28;20076;-61
2021/12/09 07:43:36;;;;;;;6.20;5.22;;;23.40;30.90;;;;;;5061083;28;20501;-61
2021/12/09 07:46:03;;;;;;;6.68;4.97;;;23.50;30.70;;;;;;5052578;28;20048;-61
2021/12/09 07:48:30;;;;;;;9.23;5.10;;;23.50;30.50;;;;;;5072071;28;20134;-61
2021/12/09 07:50:58;;;;;;;12.65;5.03;;;23.50;30.40;;;;;;5072197;28;20492;-61
2021/12/09 07:53:25;;;;;;;5.55;4.63;;;23.60;30.30;;;;;;5057911;28;20052;-61
2021/12/09 07:55:53;;;;;;;5.35;4.43;;;23.60;30.20;;;;;;5055455;28;20071;-61
2021/12/09 07:58:21;;;;;;;8.30;5.18;;;23.60;30.10;;;;;;5073532;28;20044;-60
2021/12/09 08:00:49;;;;;;;8.82;4.82;;;23.70;30.10;;;;;;5073107;28;20698;-61
2021/12/09 08:03:17;;;;;;;5.18;4.22;;;23.80;30.20;;;;;;5051396;28;20619;-60
2021/12/09 08:05:47;;;;;;;6.93;4.38;;;23.80;30.30;;;;;;5071916;28;20055;-60
2021/12/09 08:08:15;;;;;;;7.95;5.18;;;23.80;30.60;;;;;;5070452;28;21231;-60
2021/12/09 08:10:44;;;;;;;5.65;4.45;;;23.90;30.80;;;;;;5072996;28;20981;-59
2021/12/09 08:13:13;;;;;;;4.55;4.15;;;23.90;30.40;;;;;;5053865;28;20051;-61
2021/12/09 08:15:45;;;;;;;5.72;4.47;;;23.90;30.10;;;;;;5052809;28;20048;-61
2021/12/09 08:18:27;;;;;;;7.55;4.68;;;23.90;30.00;;;;;;5068030;28;20051;-62
2021/12/09 08:21:00;;;;;;;5.18;4.47;;;23.90;30.00;;;;;;5073052;28;20113;-65
2021/12/09 08:23:28;;;;;;;6.35;4.35;;;23.90;30.00;;;;;;5046890;28;20050;-61
2021/12/09 08:25:57;;;;;;;6.00;4.50;;;24.00;30.20;;;;;;5066275;28;20191;-61
2021/12/09 08:28:25;;;;;;;7.30;4.40;;;24.00;30.40;;;;;;5046768;28;20051;-60
2021/12/09 08:30:53;;;;;;;8.20;4.85;;;24.00;30.80;;;;;;5066133;28;20052;-61
2021/12/09 08:33:23;;;;;;;5.75;3.95;;;24.00;31.00;;;;;;5033127;28;20039;-62
2021/12/09 08:35:50;;;;;;;4.78;4.10;;;24.10;31.00;;;;;;5070662;28;20048;-61
2021/12/09 08:38:18;;;;;;;6.13;4.72;;;24.10;30.90;;;;;;5067382;28;21052;-61
2021/12/09 08:40:47;;;;;;;8.07;4.38;;;24.10;31.20;;;;;;5074604;28;20043;-61
2021/12/09 08:43:16;;;;;;;5.78;4.63;;;24.10;30.90;;;;;;5058897;28;20056;-62
2021/12/09 08:45:44;;;;;;;6.32;4.00;;;24.20;30.60;;;;;;5072571;27;20052;-62
2021/12/09 08:48:12;;;;;;;6.25;4.45;;;24.20;30.40;;;;;;5071981;28;20081;-62
2021/12/09 08:50:43;;;;;;;7.15;4.95;;;24.20;30.40;;;;;;5073719;27;20040;-63
2021/12/09 08:53:14;;;;;;;5.82;4.38;;;24.20;30.50;;;;;;5060044;27;20055;-62
2021/12/09 08:55:42;;;;;;;6.45;5.10;;;24.20;30.40;;;;;;5061611;28;20130;-62
2021/12/09 08:58:11;;;;;;;5.68;4.68;;;24.30;30.60;;;;;;5076410;28;20054;-61
2021/12/09 09:00:39;;;;;;;4.72;4.22;;;24.30;31.20;;;;;;5075054;27;20420;-62
2021/12/09 09:03:07;;;;;;;6.03;4.93;;;24.30;31.40;;;;;;5057541;27;20058;-62
2021/12/09 09:05:36;;;;;;;5.30;4.80;;;24.30;31.30;;;;;;5071051;27;20056;-62
2021/12/09 09:08:05;;;;;;;5.85;4.93;;;24.30;31.70;;;;;;5073525;28;20062;-62
2021/12/09 09:10:35;;;;;;;5.32;4.15;;;24.30;31.70;;;;;;5072148;27;20102;-61
2021/12/09 09:13:03;;;;;;;4.93;4.20;;;24.30;31.60;;;;;;5060180;27;20129;-62
2021/12/09 09:15:31;;;;;;;5.70;4.57;;;24.40;31.70;;;;;;5075517;27;20101;-61
2021/12/09 09:18:00;;;;;;;6.55;4.93;;;24.40;31.90;;;;;;5075256;28;20093;-60
2021/12/09 09:20:30;;;;;;;5.30;4.47;;;24.40;32.00;;;;;;5073139;27;20055;-61
2021/12/09 09:22:58;;;;;;;5.78;4.63;;;24.40;32.00;;;;;;5061937;27;20500;-62
2021/12/09 09:25:29;;;;;;;6.25;4.70;;;24.40;31.80;;;;;;5071115;27;20548;-61
2021/12/09 09:27:59;;;;;;;7.72;4.95;;;24.40;31.20;;;;;;5077082;27;20047;-62
2021/12/09 09:30:36;;;;;;;8.15;4.22;;;24.50;30.80;;;;;;5075608;27;20573;-61
2021/12/09 09:33:08;;;;;;;7.93;5.07;;;24.50;30.70;;;;;;5058385;27;20139;-60
2021/12/09 09:35:37;;;;;;;4.90;4.28;;;24.50;31.40;;;;;;5070367;27;20608;-61
2021/12/09 09:38:05;;;;;;;5.55;4.53;;;24.50;30.80;;;;;;5071533;27;20142;-59
2021/12/09 09:40:40;;;;;;;7.25;4.55;;;24.50;30.70;;;;;;5070212;28;20044;-60
2021/12/09 09:43:27;;;;;;;6.15;4.82;;;24.60;30.70;;;;;;5064837;27;20126;-61
2021/12/09 09:46:04;;;;;;;6.53;4.68;;;24.60;30.60;;;;;;5060386;28;20157;-61
2021/12/09 09:48:32;;;;;;;5.07;4.18;;;24.70;30.70;;;;;;5057549;28;20488;-61
2021/12/09 09:51:01;;;;;;;7.18;4.05;;;24.70;30.30;;;;;;5075733;28;20075;-61
2021/12/09 09:53:28;;;;;;;4.82;4.28;;;24.70;30.00;;;;;;5059159;28;20086;-61
2021/12/09 09:55:56;;;;;;;6.05;4.63;;;24.70;30.00;;;;;;5071634;27;20055;-62
2021/12/09 09:58:25;;;;;;;6.90;4.28;;;24.70;29.90;;;;;;5058005;27;20141;-61
2021/12/09 10:00:53;;;;;;;5.32;3.92;;;24.70;29.80;;;;;;5082264;27;20065;-62
2021/12/09 10:03:27;;;;;;;7.07;3.72;;;24.70;29.80;;;;;;5064399;27;20147;-62
2021/12/09 10:05:57;;;;;;;4.30;3.90;;;24.70;29.80;;;;;;5073575;28;20054;-62
2021/12/09 10:08:24;;;;;;;4.70;4.30;;;24.70;29.70;;;;;;5075636;28;20047;-63
2021/12/09 10:10:51;;;;;;;6.15;4.68;;;24.70;29.70;;;;;;5077832;27;20546;-62
2021/12/09 10:13:21;;;;;;;4.57;4.07;;;24.70;29.70;;;;;;5039468;28;20138;-60
2021/12/09 10:15:51;;;;;;;6.07;4.80;;;24.70;29.60;;;;;;5071717;27;20131;-60
2021/12/09 10:18:42;;;;;;;4.90;4.32;;;24.80;29.90;;;;;;5073887;28;20058;-60
2021/12/09 10:21:11;;;;;;;5.65;4.75;;;24.80;30.10;;;;;;5074579;27;20154;-61
2021/12/09 10:23:50;;;;;;;6.25;4.40;;;24.80;30.50;;;;;;5064845;28;20097;-61
2021/12/09 10:26:26;;;;;;;4.43;4.03;;;24.80;30.30;;;;;;5077087;27;20066;-61
2021/12/09 10:29:20;;;;;;;5.30;3.92;;;24.90;30.40;;;;;;5072199;27;20101;-62
2021/12/09 10:31:59;;;;;;;5.53;4.65;;;24.90;30.00;;;;;;5040497;27;20107;-61
2021/12/09 10:34:42;;;;;;;5.30;4.45;;;24.90;30.00;;;;;;5061154;27;20048;-60
2021/12/09 10:37:21;;;;;;;4.40;4.00;;;24.90;29.90;;;;;;5070338;27;20140;-61
2021/12/09 10:40:07;;;;;;;4.13;3.65;;;24.90;29.80;;;;;;5038527;27;20496;-61
2021/12/09 10:42:43;;;;;;;3.80;3.42;;;24.90;29.80;;;;;;5061238;27;20578;-61
2021/12/09 10:45:17;;;;;;;5.15;4.43;;;24.90;29.80;;;;;;5073439;27;20635;-62
2021/12/09 10:48:20;;;;;;;8.38;4.38;;;24.90;29.80;;;;;;5079887;27;20570;-61
2021/12/09 10:51:12;;;;;;;5.30;4.65;;;24.90;29.90;;;;;;5076979;27;20455;-59
2021/12/09 10:53:47;;;;;;;6.13;4.10;;;24.90;29.90;;;;;;5063928;27;20086;-62
2021/12/09 10:56:27;;;;;;;5.20;3.97;;;24.90;29.90;;;;;;5076938;28;20048;-60
2021/12/09 10:58:54;;;;;;;4.07;3.67;;;24.90;29.90;;;;;;5055142;27;20056;-60
2021/12/09 11:01:24;;;;;;;3.85;3.45;;;24.90;29.90;;;;;;5046529;27;20055;-61
2021/12/09 11:03:58;;;;;;;6.65;4.63;;;24.90;29.90;;;;;;5069994;28;20056;-61
2021/12/09 11:06:38;;;;;;;4.03;3.65;;;24.90;29.80;;;;;;5072765;28;20405;-60
2021/12/09 11:09:08;;;;;;;6.38;3.75;;;24.90;29.90;;;;;;5075514;28;20488;-61
2021/12/09 11:11:39;;;;;;;5.65;4.32;;;24.90;29.90;;;;;;5066975;27;20138;-62
2021/12/09 11:14:14;;;;;;;4.25;3.85;;;24.90;29.80;;;;;;5068842;28;20509;-60
2021/12/09 11:16:44;;;;;;;9.38;4.13;;;24.90;29.80;;;;;;5074087;28;20044;-61
2021/12/09 11:19:34;;;;;;;3.95;3.65;;;24.90;29.80;;;;;;5073728;28;20666;-60
2021/12/09 11:22:13;;;;;;;5.18;4.10;;;25.00;29.80;;;;;;5064970;28;20070;-61
2021/12/09 11:24:49;;;;;;;4.78;3.95;;;25.00;29.70;;;;;;5074500;28;20048;-60
2021/12/09 11:27:23;;;;;;;3.65;3.35;;;25.00;29.70;;;;;;5074804;28;20078;-59
2021/12/09 11:29:54;;;;;;;3.90;3.60;;;25.00;29.70;;;;;;5073347;28;20070;-61
2021/12/09 11:32:41;;;;;;;7.35;3.53;;;25.00;29.70;;;;;;5061976;28;20115;-61
2021/12/09 11:35:24;;;;;;;4.10;3.67;;;25.00;29.60;;;;;;5051661;28;20121;-61
2021/12/09 11:38:07;;;;;;;4.40;4.00;;;25.10;29.60;;;;;;5072482;28;20177;-61
2021/12/09 11:40:46;;;;;;;5.13;3.70;;;25.00;29.60;;;;;;5072309;28;20052;-61
2021/12/09 11:43:26;;;;;;;5.00;3.55;;;25.00;29.60;;;;;;5061898;28;20059;-60
2021/12/09 11:45:59;;;;;;;4.07;3.67;;;25.10;29.60;;;;;;5073918;28;20500;-61
2021/12/09 11:48:27;;;;;;;3.85;3.35;;;25.10;29.60;;;;;;5074512;28;20056;-61
2021/12/09 11:50:54;;;;;;;3.78;3.38;;;25.10;29.60;;;;;;5071600;28;20076;-62
2021/12/09 11:53:27;;;;;;;3.53;3.22;;;25.10;30.00;;;;;;5058174;28;20044;-61
2021/12/09 11:56:07;;;;;;;7.20;4.07;;;25.10;29.60;;;;;;5081599;28;20063;-60
2021/12/09 11:58:43;;;;;;;3.83;3.50;;;25.10;29.60;;;;;;5073814;28;20051;-61
2021/12/09 12:13:38;;;;;;;3.88;3.45;;;25.10;30.00;;;;;;5062082;28;20616;-64
2021/12/09 12:16:36;;;;;;;4.28;3.70;;;25.10;30.30;;;;;;5075660;28;20439;-63
2021/12/09 12:19:24;;;;;;;4.05;3.53;;;25.10;30.50;;;;;;5079483;27;20146;-62
2021/12/09 12:22:04;;;;;;;5.53;3.70;;;25.00;30.80;;;;;;5071691;27;20047;-68
2021/12/09 12:24:58;;;;;;;3.42;2.83;;;25.00;31.10;;;;;;5072667;28;20063;-64
2021/12/09 12:27:43;;;;;;;9.55;3.70;;;25.00;31.50;;;;;;5073614;28;20097;-64
2021/12/09 12:30:33;;;;;;;3.90;3.50;;;24.90;32.00;;;;;;5072044;27;20129;-64
2021/12/09 12:33:14;;;;;;;4.78;3.10;;;24.90;32.20;;;;;;5061309;27;20080;-65
2021/12/09 12:36:01;;;;;;;3.20;2.90;;;24.90;32.20;;;;;;5076667;27;20585;-64
2021/12/09 12:38:36;;;;;;;3.33;3.03;;;24.80;31.90;;;;;;5058185;27;20070;-63
2021/12/09 12:41:09;;;;;;;3.67;3.05;;;24.70;31.70;;;;;;5070066;27;20482;-65
2021/12/09 12:43:58;;;;;;;3.53;3.22;;;24.70;31.50;;;;;;5057918;27;20450;-64
2021/12/09 12:46:51;;;;;;;4.15;3.30;;;24.70;31.40;;;;;;5076228;27;20075;-64
2021/12/09 12:49:28;;;;;;;2.83;2.30;;;24.70;31.40;;;;;;5069813;27;20051;-65
2021/12/09 12:52:06;;;;;;;5.25;2.90;;;24.70;31.70;;;;;;5067091;27;20094;-64
2021/12/09 12:54:53;;;;;;;2.72;2.53;;;24.60;32.00;;;;;;5066784;28;20088;-63
2021/12/09 12:57:41;;;;;;;3.05;2.75;;;24.60;32.20;;;;;;5075368;27;20075;-63
2021/12/09 13:00:29;;;;;;;4.53;3.10;;;24.60;32.20;;;;;;5074588;28;20055;-65
2021/12/09 13:03:13;;;;;;;3.03;2.78;;;24.60;32.20;;;;;;5058472;27;20053;-65
2021/12/09 13:06:05;;;;;;;3.05;2.78;;;24.50;32.20;;;;;;5053513;27;20047;-64
2021/12/09 13:08:55;;;;;;;3.70;3.10;;;24.50;32.20;;;;;;5070756;27;20050;-63
2021/12/09 13:11:47;;;;;;;3.63;3.03;;;24.60;32.30;;;;;;5045706;28;20098;-63
2021/12/09 13:14:29;;;;;;;2.80;2.60;;;24.60;32.30;;;;;;5032761;28;20143;-64
2021/12/09 13:17:13;;;;;;;2.72;2.53;;;24.60;32.30;;;;;;5072981;27;20047;-64
2021/12/09 13:19:58;;;;;;;3.05;2.63;;;24.60;32.20;;;;;;5072755;28;20055;-63
2021/12/09 13:22:37;;;;;;;2.88;2.67;;;24.70;32.10;;;;;;5063761;27;20047;-64
2021/12/09 13:25:29;;;;;;;2.88;2.67;;;24.70;32.10;;;;;;5070352;28;20054;-64